createdAt,value
2023-03-07T00:01:48.910Z,70.73
2023-03-07T00:06:50.439Z,71.27
2023-03-07T00:11:52.744Z,71.33
2023-03-07T00:16:54.605Z,71.25
2023-03-07T00:21:56.074Z,70.32
2023-03-07T00:26:57.536Z,70.59
2023-03-07T00:31:58.967Z,70.41
2023-03-07T00:37:00.388Z,69.89
2023-03-07T00:42:01.792Z,69.61
2023-03-07T00:47:03.684Z,69.38
2023-03-07T00:52:05.294Z,68.76
2023-03-07T00:57:06.888Z,68.87
2023-03-07T01:02:08.324Z,69.00
2023-03-07T01:07:09.734Z,68.46
2023-03-07T01:12:11.245Z,68.57
2023-03-07T01:17:12.668Z,67.97
2023-03-07T01:22:14.100Z,68.72
2023-03-07T01:27:16.641Z,68.37
2023-03-07T01:32:18.117Z,68.86
2023-03-07T01:37:19.735Z,69.03
2023-03-07T01:42:21.880Z,69.96
2023-03-07T01:47:23.785Z,70.94
2023-03-07T01:52:30.053Z,72.62
2023-03-07T01:57:35.908Z,73.20
2023-03-07T02:02:47.566Z,74.14
2023-03-07T02:07:51.219Z,74.53
2023-03-07T02:12:54.549Z,74.88
2023-03-07T02:17:58.703Z,74.93
2023-03-07T02:23:02.121Z,75.73
2023-03-07T02:28:04.498Z,76.03
2023-03-07T02:33:05.945Z,75.59
2023-03-07T02:38:07.551Z,75.94
2023-03-07T02:43:09.725Z,75.80
2023-03-07T02:48:11.331Z,75.58
2023-03-07T02:53:12.792Z,75.54
2023-03-07T02:58:14.249Z,75.71
2023-03-07T03:03:15.715Z,74.11
2023-03-07T03:08:17.163Z,74.03
2023-03-07T03:13:18.998Z,73.64
2023-03-07T03:18:20.512Z,72.92
2023-03-07T03:23:22.099Z,72.97
2023-03-07T03:28:23.525Z,73.57
2023-03-07T03:33:26.354Z,73.41
2023-03-07T03:38:27.989Z,73.08
2023-03-07T03:43:29.419Z,73.73
2023-03-07T03:48:31.002Z,73.47
2023-03-07T03:53:35.125Z,73.32
2023-03-07T03:58:36.648Z,72.74
2023-03-07T04:03:40.604Z,73.02
2023-03-07T04:08:44.590Z,72.71
2023-03-07T04:13:46.377Z,72.81
2023-03-07T04:18:50.239Z,71.78
2023-03-07T04:23:55.636Z,71.98
2023-03-07T04:28:57.209Z,71.74
2023-03-07T04:33:58.747Z,71.10
2023-03-07T04:39:00.190Z,70.99
2023-03-07T04:44:01.754Z,70.39
2023-03-07T04:49:03.215Z,69.78
2023-03-07T04:54:04.676Z,69.56
2023-03-07T04:59:06.112Z,69.51
2023-03-07T05:04:07.617Z,68.27
2023-03-07T05:09:09.224Z,68.77
2023-03-07T05:14:10.627Z,68.18
2023-03-07T05:19:15.989Z,68.64
2023-03-07T05:24:17.415Z,67.85
2023-03-07T05:29:18.852Z,68.40
2023-03-07T05:34:20.567Z,67.42
2023-03-07T05:39:24.304Z,67.48
2023-03-07T05:44:25.909Z,67.17
2023-03-07T05:49:27.410Z,67.43
2023-03-07T05:54:28.803Z,66.53
2023-03-07T05:59:30.225Z,67.15
2023-03-07T06:04:31.692Z,67.57
2023-03-07T06:09:33.163Z,66.58
2023-03-07T06:14:34.707Z,67.05
2023-03-07T06:19:36.155Z,66.31
2023-03-07T06:24:37.604Z,66.57
2023-03-07T06:29:39.068Z,65.91
2023-03-07T06:34:40.483Z,65.66
2023-03-07T06:39:41.992Z,65.63
2023-03-07T06:44:44.018Z,65.31
2023-03-07T06:49:45.565Z,64.69
2023-03-07T06:54:46.999Z,64.55
2023-03-07T06:59:48.627Z,64.36
2023-03-07T07:04:50.149Z,64.81
2023-03-07T07:09:51.852Z,63.39
2023-03-07T07:14:53.356Z,63.19
2023-03-07T07:19:55.074Z,63.52
2023-03-07T07:24:56.515Z,62.79
2023-03-07T07:29:57.957Z,62.88
2023-03-07T07:34:59.397Z,62.63
2023-03-07T07:40:00.813Z,62.40
2023-03-07T07:45:02.227Z,62.41
2023-03-07T07:50:04.182Z,61.74
2023-03-07T07:55:05.904Z,62.19
2023-03-07T08:00:10.275Z,60.98
2023-03-07T08:05:12.641Z,61.06
2023-03-07T08:10:18.092Z,60.48
2023-03-07T08:15:23.905Z,60.69
2023-03-07T08:20:25.715Z,59.87
2023-03-07T08:25:27.256Z,60.63
2023-03-07T08:30:30.180Z,60.58
2023-03-07T08:35:31.958Z,60.36
2023-03-07T08:40:33.509Z,59.59
2023-03-07T08:45:34.986Z,59.50
2023-03-07T08:50:39.100Z,60.06
2023-03-07T08:55:40.662Z,60.36
2023-03-07T09:00:42.289Z,59.83
2023-03-07T09:05:43.758Z,60.07
2023-03-07T09:10:45.179Z,59.89
2023-03-07T09:15:46.834Z,59.97
2023-03-07T09:20:48.617Z,59.91
2023-03-07T09:25:50.071Z,59.41
2023-03-07T09:30:51.566Z,59.69
2023-03-07T09:35:53.021Z,59.64
2023-03-07T09:40:55.539Z,58.82
2023-03-07T09:46:43.051Z,58.96
2023-03-07T09:51:46.645Z,57.78
2023-03-07T09:56:58.369Z,58.04
2023-03-07T10:02:26.807Z,57.75
2023-03-07T10:07:29.758Z,57.76
2023-03-07T10:12:37.200Z,58.49
2023-03-07T10:18:08.845Z,58.24
2023-03-07T10:23:38.772Z,58.28
2023-03-07T10:28:43.114Z,56.98
2023-03-07T10:33:49.950Z,55.10
2023-03-07T10:39:20.254Z,53.70
2023-03-07T10:44:22.397Z,52.83
2023-03-07T10:49:36.616Z,51.71
2023-03-07T10:54:38.952Z,51.69
2023-03-07T10:59:47.508Z,50.70
2023-03-07T11:04:49.011Z,49.98
2023-03-07T11:09:50.478Z,49.72
2023-03-07T11:14:57.996Z,49.35
2023-03-07T11:19:59.783Z,49.18
2023-03-07T11:25:03.378Z,49.36
2023-03-07T11:30:15.456Z,49.31
2023-03-07T11:35:23.795Z,50.20
2023-03-07T11:40:38.738Z,48.84
2023-03-07T11:45:54.327Z,49.59
2023-03-07T11:50:59.715Z,47.59
2023-03-07T11:56:19.960Z,48.27
2023-03-07T12:01:36.095Z,48.32
2023-03-07T12:06:43.477Z,47.44
2023-03-07T12:12:03.221Z,48.09
2023-03-07T12:17:38.241Z,47.31
2023-03-07T12:23:10.901Z,48.78
2023-03-07T12:28:20.222Z,48.65
2023-03-07T12:34:00.922Z,47.55
2023-03-07T12:39:23.824Z,47.69
2023-03-07T12:45:02.977Z,48.58
2023-03-07T12:50:36.560Z,47.91
2023-03-07T12:55:48.365Z,47.46
2023-03-07T13:00:56.925Z,46.86
2023-03-07T13:05:58.538Z,48.05
2023-03-07T13:11:00.142Z,47.87
2023-03-07T13:16:06.596Z,46.45
2023-03-07T13:21:31.145Z,48.26
2023-03-07T13:26:32.837Z,47.62
2023-03-07T13:31:39.372Z,47.74
2023-03-07T13:36:40.867Z,47.07
2023-03-07T13:41:50.774Z,46.55
2023-03-07T13:46:55.912Z,47.78
2023-03-07T13:52:37.818Z,47.60
2023-03-07T13:57:42.383Z,47.71
2023-03-07T14:02:44.932Z,48.46
2023-03-07T14:07:51.549Z,47.30
2023-03-07T14:13:20.632Z,47.86
2023-03-07T14:18:37.453Z,48.79
2023-03-07T14:23:42.434Z,48.38
2023-03-07T14:28:50.239Z,48.97
2023-03-07T14:33:52.520Z,48.95
2023-03-07T14:38:56.592Z,49.70
2023-03-07T14:44:22.374Z,49.22
2023-03-07T14:49:32.073Z,50.24
2023-03-07T14:54:34.107Z,49.48
2023-03-07T14:59:35.665Z,50.37
2023-03-07T15:04:38.738Z,50.96
2023-03-07T15:09:40.239Z,51.03
2023-03-07T15:15:04.728Z,51.21
2023-03-07T15:20:29.341Z,50.76
2023-03-07T15:25:33.161Z,49.99
2023-03-07T15:30:37.528Z,50.70
2023-03-07T15:35:39.332Z,50.45
2023-03-07T15:40:44.185Z,51.31
2023-03-07T15:46:04.165Z,50.97
2023-03-07T15:51:13.947Z,50.70
2023-03-07T15:56:27.017Z,51.33
2023-03-07T16:01:28.611Z,50.95
2023-03-07T16:06:44.942Z,51.61
2023-03-07T16:11:46.749Z,51.82
2023-03-07T16:16:48.680Z,52.33
2023-03-07T16:21:50.190Z,52.67
2023-03-07T16:26:51.656Z,52.56
2023-03-07T16:31:54.084Z,52.70
2023-03-07T16:36:56.352Z,52.44
2023-03-07T16:41:58.016Z,52.82
2023-03-07T16:47:09.352Z,53.03
2023-03-07T16:52:13.326Z,53.25
2023-03-07T16:57:16.964Z,53.09
2023-03-07T17:02:21.145Z,53.85
2023-03-07T17:07:23.532Z,53.52
2023-03-07T17:12:25.720Z,53.45
2023-03-07T17:17:36.402Z,53.71
2023-03-07T17:22:37.829Z,53.34
2023-03-07T17:27:45.307Z,53.45
2023-03-07T17:32:47.514Z,54.33
2023-03-07T17:37:56.040Z,53.24
2023-03-07T17:42:59.253Z,54.28
2023-03-07T17:48:00.824Z,54.87
2023-03-07T17:53:02.437Z,53.40
2023-03-07T17:58:06.959Z,54.06
2023-03-07T18:03:08.492Z,54.29
2023-03-07T18:08:10.117Z,54.35
2023-03-07T18:13:11.657Z,54.43
2023-03-07T18:18:13.671Z,54.10
2023-03-07T18:23:15.081Z,54.21
2023-03-07T18:28:16.515Z,54.22
2023-03-07T18:33:17.944Z,54.55
2023-03-07T18:38:19.436Z,55.22
2023-03-07T18:43:20.924Z,53.54
2023-03-07T18:48:22.356Z,54.45
2023-03-07T18:53:24.071Z,54.11
2023-03-07T18:58:26.319Z,55.08
2023-03-07T19:03:27.776Z,54.88
2023-03-07T19:08:29.223Z,54.81
2023-03-07T19:13:31.011Z,54.38
2023-03-07T19:18:33.352Z,54.77
2023-03-07T19:23:34.789Z,54.77
2023-03-07T19:28:36.245Z,54.02
2023-03-07T19:33:38.408Z,54.18
2023-03-07T19:38:40.534Z,54.22
2023-03-07T19:43:42.666Z,54.20
2023-03-07T19:48:44.505Z,53.64
2023-03-07T19:53:46.998Z,53.60
2023-03-07T19:58:48.943Z,53.70
2023-03-07T20:03:51.062Z,53.33
2023-03-07T20:08:53.919Z,54.08
2023-03-07T20:13:57.785Z,53.43
2023-03-07T20:19:02.350Z,53.59
2023-03-07T20:24:04.950Z,53.85
2023-03-07T20:29:08.554Z,53.16
2023-03-07T20:34:10.843Z,53.59
2023-03-07T20:39:15.361Z,52.94
2023-03-07T20:44:18.044Z,53.41
2023-03-07T20:49:20.533Z,54.80
2023-03-07T20:54:22.078Z,54.54
2023-03-07T20:59:23.689Z,53.44
2023-03-07T21:04:25.445Z,53.74
2023-03-07T21:09:26.941Z,54.77
2023-03-07T21:14:28.492Z,54.31
2023-03-07T21:19:30.066Z,53.87
2023-03-07T21:24:31.563Z,54.36
2023-03-07T21:29:33.249Z,53.81
2023-03-07T21:34:34.724Z,54.43
2023-03-07T21:39:36.386Z,54.21
2023-03-07T21:44:38.070Z,54.44
2023-03-07T21:49:39.525Z,54.09
2023-03-07T21:54:40.957Z,53.60
2023-03-07T21:59:42.392Z,53.78
2023-03-07T22:04:43.881Z,54.01
2023-03-07T22:09:45.387Z,53.49
2023-03-07T22:14:47.268Z,54.07
2023-03-07T22:19:48.715Z,53.60
2023-03-07T22:24:50.346Z,52.94
2023-03-07T22:29:51.789Z,53.20
2023-03-07T22:34:53.228Z,53.37
2023-03-07T22:39:54.684Z,53.61
2023-03-07T22:44:56.110Z,52.66
2023-03-07T22:49:57.562Z,53.29
2023-03-07T22:54:59.668Z,53.59
2023-03-07T23:00:01.196Z,53.99
2023-03-07T23:05:02.683Z,53.61
2023-03-07T23:10:04.407Z,53.63
2023-03-07T23:15:06.404Z,53.59
2023-03-07T23:20:08.889Z,54.46
2023-03-07T23:25:11.293Z,53.43
2023-03-07T23:30:13.121Z,54.12
2023-03-07T23:35:14.606Z,54.32
2023-03-07T23:40:16.198Z,54.12
2023-03-07T23:45:17.663Z,54.15
2023-03-07T23:50:19.254Z,54.82
2023-03-07T23:55:20.800Z,54.23
